createdAt,value
2023-03-22T10:58:40.456Z,20.90
2023-03-22T11:01:52.585Z,18.98
2023-03-22T11:05:01.864Z,19.13
2023-03-22T11:08:17.196Z,19.60
2023-03-22T11:16:00.917Z,24.17
2023-03-22T11:18:33.696Z,24.45
2023-03-22T11:23:22.032Z,19.83
2023-03-22T11:26:30.316Z,19.15
2023-03-22T11:29:41.539Z,19.80
2023-03-22T11:32:50.200Z,17.08
2023-03-22T11:35:58.655Z,18.95
2023-03-22T11:38:31.074Z,18.10
2023-03-22T11:51:40.416Z,18.75
2023-03-22T11:54:54.746Z,17.92
2023-03-22T11:58:03.211Z,13.90
2023-03-22T12:00:53.939Z,16.73
2023-03-22T12:03:45.526Z,13.70
2023-03-22T12:06:25.100Z,14.80
2023-03-22T12:09:32.157Z,14.82
2023-03-22T12:12:40.574Z,17.98
2023-03-22T12:15:55.475Z,16.45
2023-03-22T12:23:22.322Z,21.88
2023-03-22T12:26:00.870Z,14.40
2023-03-22T12:29:35.575Z,12.07
2023-03-22T12:32:47.489Z,13.45
2023-03-22T12:36:16.227Z,16.88
2023-03-22T12:40:06.200Z,15.82
2023-03-22T12:43:30.194Z,15.65
2023-03-22T12:46:37.342Z,17.52
2023-03-22T12:49:47.864Z,21.73
2023-03-22T12:53:19.182Z,18.45
2023-03-22T12:55:49.276Z,19.58
2023-03-22T12:59:17.933Z,19.60
2023-03-22T13:02:28.592Z,22.95
2023-03-22T13:05:57.431Z,21.00
2023-03-22T13:09:24.587Z,17.83
2023-03-22T13:12:38.314Z,18.23
2023-03-22T13:16:11.616Z,20.02
2023-03-22T13:19:40.320Z,18.05
2023-03-22T14:11:33.578Z,10.30
2023-03-22T14:14:07.025Z,8.50
2023-03-22T14:16:43.497Z,8.73
2023-03-22T14:19:23.703Z,7.00
